Time;durP1;ratioP1;P1;durP2;ratioP2;P2;SDS_P1;SDS_P2;PMS_P1;PMS_P2;Temp;Humidity;BMP_temperature;BMP_pressure;BME280_temperature;BME280_humidity;BME280_pressure;Samples;Min_cycle;Max_cycle;Signal;HPM_P1;HPM_P2
2023/12/15 00:00:01;;;;;;;6.80;4.93;;;;;;;;;;5114615;28;20024;-58
2023/12/15 00:02:27;;;;;;;6.93;4.85;;;;;;;;;;5114976;28;20061;-58
2023/12/15 00:04:53;;;;;;;6.85;4.97;;;;;;;;;;5113785;28;20473;-58
2023/12/15 00:07:19;;;;;;;6.75;4.97;;;;;;;;;;5113821;28;20037;-58
2023/12/15 00:09:45;;;;;;;7.55;4.63;;;;;;;;;;5114387;28;20051;-59
2023/12/15 00:12:11;;;;;;;8.35;4.47;;;;;;;;;;5114089;28;20066;-59
2023/12/15 00:14:37;;;;;;;6.70;5.22;;;;;;;;;;5114042;28;20055;-59
2023/12/15 00:17:03;;;;;;;8.25;5.32;;;;;;;;;;5114052;28;20453;-59
2023/12/15 00:19:29;;;;;;;5.82;4.50;;;;;;;;;;5114250;28;20031;-59
2023/12/15 00:21:55;;;;;;;8.95;5.13;;;;;;;;;;5096009;28;20028;-59
2023/12/15 00:24:21;;;;;;;6.03;4.30;;;;;;;;;;5113959;28;20046;-59
2023/12/15 00:26:47;;;;;;;7.05;4.47;;;;;;;;;;5113873;28;20355;-57
2023/12/15 00:29:13;;;;;;;8.60;4.93;;;;;;;;;;5114398;28;20145;-57
2023/12/15 00:31:39;;;;;;;9.50;5.28;;;;;;;;;;5114308;28;20319;-57
2023/12/15 00:34:05;;;;;;;9.90;4.57;;;;;;;;;;5113827;28;20031;-57
2023/12/15 00:36:31;;;;;;;6.40;4.30;;;;;;;;;;5114095;28;20028;-57
2023/12/15 00:38:57;;;;;;;5.03;4.25;;;;;;;;;;5114671;28;20442;-60
2023/12/15 00:41:23;;;;;;;8.13;4.20;;;;;;;;;;5113561;28;20390;-60
2023/12/15 00:43:49;;;;;;;5.32;3.10;;;;;;;;;;5113754;28;20024;-59
2023/12/15 00:46:15;;;;;;;5.43;3.30;;;;;;;;;;5113955;28;20035;-57
2023/12/15 00:48:42;;;;;;;7.25;4.50;;;;;;;;;;5113964;28;20027;-58
2023/12/15 00:51:08;;;;;;;5.82;4.22;;;;;;;;;;5113649;28;20023;-57
2023/12/15 00:53:34;;;;;;;5.35;3.30;;;;;;;;;;5113606;28;20019;-58
2023/12/15 00:56:00;;;;;;;5.07;3.75;;;;;;;;;;5113473;28;20054;-57
2023/12/15 00:58:26;;;;;;;5.47;3.83;;;;;;;;;;5117224;28;20031;-58
2023/12/15 01:00:52;;;;;;;5.07;2.80;;;;;;;;;;5117480;28;20485;-60
2023/12/15 01:03:18;;;;;;;5.65;3.33;;;;;;;;;;5117875;28;20027;-59
2023/12/15 01:05:44;;;;;;;7.97;3.80;;;;;;;;;;5118033;28;20027;-59
2023/12/15 01:08:11;;;;;;;6.55;4.05;;;;;;;;;;5118001;28;20028;-59
2023/12/15 01:10:37;;;;;;;7.30;4.47;;;;;;;;;;5117719;28;20038;-58
2023/12/15 01:13:03;;;;;;;6.60;4.00;;;;;;;;;;5117300;28;20027;-57
2023/12/15 01:15:29;;;;;;;8.35;5.30;;;;;;;;;;5118068;28;20031;-57
2023/12/15 01:17:55;;;;;;;6.85;4.47;;;;;;;;;;5117395;28;20035;-57
2023/12/15 01:20:21;;;;;;;6.32;4.50;;;;;;;;;;5117143;28;20027;-56
2023/12/15 01:22:47;;;;;;;14.50;5.45;;;;;;;;;;5117205;28;20028;-59
2023/12/15 01:25:13;;;;;;;7.13;4.60;;;;;;;;;;5117702;28;20027;-59
2023/12/15 01:27:39;;;;;;;7.55;4.65;;;;;;;;;;5117572;28;20445;-59
2023/12/15 01:30:05;;;;;;;7.68;5.20;;;;;;;;;;5117041;28;20023;-59
2023/12/15 01:32:31;;;;;;;9.60;6.65;;;;;;;;;;5116965;28;20501;-58
2023/12/15 01:34:57;;;;;;;8.70;6.10;;;;;;;;;;5116918;28;20053;-59
2023/12/15 01:37:23;;;;;;;6.15;4.75;;;;;;;;;;5117748;28;20023;-59
2023/12/15 01:39:50;;;;;;;8.77;5.47;;;;;;;;;;5117373;28;20211;-59
2023/12/15 01:42:15;;;;;;;9.77;6.43;;;;;;;;;;5116822;28;20028;-57
2023/12/15 01:44:41;;;;;;;7.40;5.00;;;;;;;;;;5116985;28;20084;-59
2023/12/15 01:47:08;;;;;;;8.30;5.43;;;;;;;;;;5117214;28;20126;-59
2023/12/15 01:49:34;;;;;;;11.35;6.18;;;;;;;;;;5116671;28;20106;-59
2023/12/15 01:52:00;;;;;;;10.50;5.82;;;;;;;;;;5116570;28;20476;-57
2023/12/15 01:54:26;;;;;;;11.32;7.03;;;;;;;;;;5116818;28;20027;-57
2023/12/15 01:56:52;;;;;;;9.20;5.60;;;;;;;;;;5116822;28;20051;-57
2023/12/15 01:59:18;;;;;;;9.65;6.00;;;;;;;;;;5116979;28;20023;-57
2023/12/15 02:01:44;;;;;;;9.35;5.82;;;;;;;;;;5115933;28;20087;-57
2023/12/15 02:04:10;;;;;;;9.65;5.43;;;;;;;;;;5116062;28;20381;-57
2023/12/15 02:06:36;;;;;;;7.80;6.10;;;;;;;;;;5116173;28;20119;-57
2023/12/15 02:09:02;;;;;;;8.15;5.80;;;;;;;;;;5115687;28;20019;-59
2023/12/15 02:11:28;;;;;;;7.32;5.65;;;;;;;;;;5116300;28;20031;-59
2023/12/15 02:13:54;;;;;;;8.35;5.82;;;;;;;;;;5117029;28;20027;-59
2023/12/15 02:16:20;;;;;;;7.80;5.53;;;;;;;;;;5116670;28;20345;-59
2023/12/15 02:18:46;;;;;;;7.35;5.47;;;;;;;;;;5116117;28;20024;-59
2023/12/15 02:21:12;;;;;;;7.35;5.43;;;;;;;;;;5115756;28;20022;-59
2023/12/15 02:23:38;;;;;;;9.35;5.03;;;;;;;;;;5116028;28;20030;-59
2023/12/15 02:26:04;;;;;;;9.35;5.75;;;;;;;;;;5116603;28;20023;-60
2023/12/15 02:28:30;;;;;;;7.22;4.57;;;;;;;;;;5115699;28;20478;-60
2023/12/15 02:30:56;;;;;;;8.80;5.80;;;;;;;;;;5116133;28;20024;-58
2023/12/15 02:33:22;;;;;;;6.95;5.00;;;;;;;;;;5116335;28;20027;-58
2023/12/15 02:35:50;;;;;;;10.65;5.30;;;;;;;;;;5116482;28;20023;-57
2023/12/15 02:38:18;;;;;;;8.77;5.80;;;;;;;;;;5116224;28;20032;-58
2023/12/15 02:40:47;;;;;;;5.95;5.07;;;;;;;;;;5115839;28;20411;-58
2023/12/15 02:43:13;;;;;;;9.90;6.32;;;;;;;;;;5115348;28;20473;-57
2023/12/15 02:45:39;;;;;;;7.22;5.13;;;;;;;;;;5115578;28;20104;-56
2023/12/15 02:48:05;;;;;;;7.22;5.43;;;;;;;;;;5115537;28;20370;-55
2023/12/15 02:50:31;;;;;;;8.65;5.45;;;;;;;;;;5115142;28;20076;-57
2023/12/15 02:52:56;;;;;;;6.45;5.15;;;;;;;;;;5115392;28;20036;-58
2023/12/15 02:55:22;;;;;;;9.32;6.28;;;;;;;;;;5115432;28;20441;-58
2023/12/15 02:57:48;;;;;;;8.63;6.00;;;;;;;;;;5115376;28;20034;-58
2023/12/15 03:00:14;;;;;;;10.40;6.53;;;;;;;;;;5115543;28;20184;-58
2023/12/15 03:02:41;;;;;;;7.72;5.72;;;;;;;;;;5115289;28;20043;-60
2023/12/15 03:05:07;;;;;;;7.43;4.20;;;;;;;;;;5115219;28;20106;-59
2023/12/15 03:07:33;;;;;;;7.03;4.80;;;;;;;;;;5115227;28;20080;-60
2023/12/15 03:09:59;;;;;;;10.32;5.65;;;;;;;;;;5114902;28;20066;-59
2023/12/15 03:12:25;;;;;;;7.88;5.60;;;;;;;;;;5114797;28;20028;-60
2023/12/15 03:14:51;;;;;;;8.32;5.68;;;;;;;;;;5114691;28;20085;-60
2023/12/15 03:17:17;;;;;;;9.05;4.88;;;;;;;;;;5115586;28;20106;-58
2023/12/15 03:19:43;;;;;;;7.60;4.65;;;;;;;;;;5114592;28;20020;-58
2023/12/15 03:22:09;;;;;;;8.68;5.72;;;;;;;;;;5115075;28;20442;-58
2023/12/15 03:24:35;;;;;;;9.10;5.60;;;;;;;;;;5114560;28;20051;-58
2023/12/15 03:27:01;;;;;;;12.00;6.88;;;;;;;;;;5114751;28;20038;-58
2023/12/15 03:29:27;;;;;;;8.40;5.60;;;;;;;;;;5115247;28;20028;-57
2023/12/15 03:31:53;;;;;;;7.25;5.15;;;;;;;;;;5114717;28;20095;-58
2023/12/15 03:34:19;;;;;;;6.43;4.72;;;;;;;;;;5115130;28;20112;-58
2023/12/15 03:36:45;;;;;;;8.07;5.55;;;;;;;;;;5115121;28;20024;-58
2023/12/15 03:39:11;;;;;;;9.88;5.45;;;;;;;;;;5115082;28;20051;-58
2023/12/15 03:41:36;;;;;;;9.40;6.07;;;;;;;;;;5115303;28;20400;-58
2023/12/15 03:44:02;;;;;;;6.90;5.70;;;;;;;;;;5114510;28;20465;-58
2023/12/15 03:46:28;;;;;;;8.27;5.65;;;;;;;;;;5114076;28;20040;-58
2023/12/15 03:48:54;;;;;;;8.45;5.22;;;;;;;;;;5115064;28;20099;-58
2023/12/15 03:51:20;;;;;;;7.28;4.80;;;;;;;;;;5114333;28;20073;-58
2023/12/15 03:53:46;;;;;;;7.13;4.85;;;;;;;;;;5115081;28;20062;-58
2023/12/15 03:56:12;;;;;;;9.55;5.20;;;;;;;;;;5114198;28;20086;-58
2023/12/15 03:58:38;;;;;;;7.38;5.28;;;;;;;;;;5114194;28;20032;-58
2023/12/15 04:01:04;;;;;;;6.75;5.40;;;;;;;;;;5114542;28;20023;-57
2023/12/15 04:03:30;;;;;;;6.25;4.70;;;;;;;;;;5114761;28;20038;-57
2023/12/15 04:05:56;;;;;;;12.82;5.78;;;;;;;;;;5114718;28;20458;-57
2023/12/15 04:08:22;;;;;;;8.10;5.68;;;;;;;;;;5114087;28;20040;-57
2023/12/15 04:10:48;;;;;;;8.68;5.53;;;;;;;;;;5114330;28;20088;-57
2023/12/15 04:13:14;;;;;;;8.82;5.05;;;;;;;;;;5114138;28;20019;-57
2023/12/15 04:15:40;;;;;;;8.23;4.53;;;;;;;;;;5113729;28;20024;-58
2023/12/15 04:18:07;;;;;;;7.85;5.30;;;;;;;;;;5114111;28;20367;-58
2023/12/15 04:20:33;;;;;;;7.18;4.85;;;;;;;;;;5114418;28;20059;-57
2023/12/15 04:22:59;;;;;;;9.35;4.85;;;;;;;;;;5114450;28;20033;-56
2023/12/15 04:25:25;;;;;;;9.15;4.95;;;;;;;;;;5114716;28;20028;-57
2023/12/15 04:27:51;;;;;;;7.10;4.50;;;;;;;;;;5113870;28;20415;-57
2023/12/15 04:30:17;;;;;;;8.07;5.43;;;;;;;;;;5095818;28;20023;-57
2023/12/15 04:32:43;;;;;;;9.23;5.32;;;;;;;;;;5116761;28;20031;-57
2023/12/15 04:35:09;;;;;;;8.90;5.45;;;;;;;;;;5118129;28;20054;-60
2023/12/15 04:37:35;;;;;;;8.60;5.82;;;;;;;;;;5118382;28;20097;-60
2023/12/15 04:40:01;;;;;;;8.05;4.97;;;;;;;;;;5117752;28;20027;-61
2023/12/15 04:42:28;;;;;;;7.28;5.85;;;;;;;;;;5118572;28;20023;-59
2023/12/15 04:44:54;;;;;;;11.48;6.10;;;;;;;;;;5117958;28;20067;-60
2023/12/15 04:47:20;;;;;;;11.05;5.45;;;;;;;;;;5118413;28;20399;-59
2023/12/15 04:49:46;;;;;;;6.95;4.80;;;;;;;;;;5117628;28;20030;-58
2023/12/15 04:52:12;;;;;;;6.68;4.70;;;;;;;;;;5118345;28;20015;-60
2023/12/15 04:54:38;;;;;;;8.13;4.97;;;;;;;;;;5117447;28;20081;-59
2023/12/15 04:57:04;;;;;;;8.35;5.55;;;;;;;;;;5118569;28;20548;-57
2023/12/15 04:59:30;;;;;;;7.35;4.85;;;;;;;;;;5117607;28;20020;-57
2023/12/15 05:01:56;;;;;;;7.55;5.53;;;;;;;;;;5117647;28;20019;-57
2023/12/15 05:04:22;;;;;;;11.18;5.95;;;;;;;;;;5118003;28;20020;-57
2023/12/15 05:06:48;;;;;;;7.40;5.22;;;;;;;;;;5117888;28;20035;-58
2023/12/15 05:09:14;;;;;;;8.85;5.13;;;;;;;;;;5118125;28;20020;-57
2023/12/15 05:11:40;;;;;;;8.02;5.20;;;;;;;;;;5117241;28;20020;-57
2023/12/15 05:14:06;;;;;;;9.35;6.90;;;;;;;;;;5117519;28;20019;-57
2023/12/15 05:16:32;;;;;;;7.28;5.03;;;;;;;;;;5117384;28;20118;-57
2023/12/15 05:18:58;;;;;;;8.52;5.45;;;;;;;;;;5117730;28;20097;-58
2023/12/15 05:21:24;;;;;;;8.93;5.93;;;;;;;;;;5117340;28;20020;-57
2023/12/15 05:23:50;;;;;;;8.13;5.75;;;;;;;;;;5117430;28;20055;-57
2023/12/15 05:26:16;;;;;;;8.70;6.13;;;;;;;;;;5117162;28;20031;-58
2023/12/15 05:28:44;;;;;;;8.43;5.60;;;;;;;;;;5117805;28;20028;-60
2023/12/15 05:31:10;;;;;;;7.95;5.93;;;;;;;;;;5117100;28;20024;-57
2023/12/15 05:33:36;;;;;;;5.90;4.72;;;;;;;;;;5117051;28;20119;-59
2023/12/15 05:36:02;;;;;;;6.88;5.22;;;;;;;;;;5117083;28;20027;-58
2023/12/15 05:38:28;;;;;;;9.30;6.28;;;;;;;;;;5117298;28;20080;-58
2023/12/15 05:40:54;;;;;;;9.25;6.00;;;;;;;;;;5116942;28;20020;-58
2023/12/15 05:43:20;;;;;;;7.82;5.55;;;;;;;;;;5116763;28;20550;-58
2023/12/15 05:45:46;;;;;;;9.35;6.53;;;;;;;;;;5117351;28;20019;-58
2023/12/15 05:48:12;;;;;;;10.07;5.97;;;;;;;;;;5099262;28;20035;-58
2023/12/15 05:50:38;;;;;;;9.13;6.05;;;;;;;;;;5117017;28;20024;-58
2023/12/15 05:53:04;;;;;;;8.98;5.45;;;;;;;;;;5116962;28;20024;-58
2023/12/15 05:55:30;;;;;;;9.70;7.05;;;;;;;;;;5116896;28;20044;-58
2023/12/15 05:57:55;;;;;;;7.00;5.43;;;;;;;;;;5117190;28;20420;-58
2023/12/15 06:00:21;;;;;;;11.63;5.82;;;;;;;;;;5117070;28;20028;-58
2023/12/15 06:02:47;;;;;;;8.48;6.10;;;;;;;;;;5116987;28;20073;-58
2023/12/15 06:05:13;;;;;;;9.80;5.95;;;;;;;;;;5116428;28;20403;-57
2023/12/15 06:07:40;;;;;;;9.00;6.07;;;;;;;;;;5116816;28;20035;-58
2023/12/15 06:10:06;;;;;;;9.30;6.10;;;;;;;;;;5116408;28;20028;-58
2023/12/15 06:12:32;;;;;;;7.35;4.88;;;;;;;;;;5116406;28;20024;-55
2023/12/15 06:14:58;;;;;;;12.10;5.28;;;;;;;;;;5116147;28;20094;-57
2023/12/15 06:17:24;;;;;;;7.00;5.28;;;;;;;;;;5116899;28;20170;-56
2023/12/15 06:19:50;;;;;;;7.97;6.40;;;;;;;;;;5116296;28;20023;-57
2023/12/15 06:22:16;;;;;;;8.18;5.72;;;;;;;;;;5115992;28;20035;-58
2023/12/15 06:24:42;;;;;;;8.25;6.40;;;;;;;;;;5116189;28;20366;-50
2023/12/15 06:27:08;;;;;;;7.72;5.85;;;;;;;;;;5116387;28;20043;-53
2023/12/15 06:29:34;;;;;;;9.68;6.00;;;;;;;;;;5115908;28;20024;-53
2023/12/15 06:32:00;;;;;;;5.88;4.80;;;;;;;;;;5115290;28;20454;-51
2023/12/15 06:34:26;;;;;;;8.93;5.78;;;;;;;;;;5116404;28;20024;-52
2023/12/15 06:36:52;;;;;;;13.23;6.47;;;;;;;;;;5115742;28;20035;-53
2023/12/15 06:39:18;;;;;;;7.65;6.05;;;;;;;;;;5116089;28;20027;-50
2023/12/15 06:41:44;;;;;;;7.50;5.55;;;;;;;;;;5115383;28;20484;-51
2023/12/15 06:44:10;;;;;;;9.15;6.32;;;;;;;;;;5115876;28;20020;-55
2023/12/15 06:46:38;;;;;;;8.63;5.80;;;;;;;;;;5115713;28;20032;-54
2023/12/15 06:49:04;;;;;;;7.05;5.60;;;;;;;;;;5116288;28;20425;-55
2023/12/15 06:51:30;;;;;;;8.60;6.07;;;;;;;;;;5115611;28;20061;-55
2023/12/15 06:53:56;;;;;;;7.65;4.97;;;;;;;;;;5115462;28;20441;-53
2023/12/15 06:56:22;;;;;;;8.32;5.90;;;;;;;;;;5114660;28;20043;-55
2023/12/15 06:58:48;;;;;;;9.88;6.28;;;;;;;;;;5115978;28;20030;-49
2023/12/15 07:01:14;;;;;;;7.03;4.95;;;;;;;;;;5115289;28;20034;-56
2023/12/15 07:03:40;;;;;;;7.05;5.30;;;;;;;;;;5115924;28;20457;-56
2023/12/15 07:06:07;;;;;;;7.55;4.93;;;;;;;;;;5115361;28;20019;-56
2023/12/15 07:08:33;;;;;;;8.40;5.70;;;;;;;;;;5115834;28;20118;-56
2023/12/15 07:10:58;;;;;;;6.20;5.50;;;;;;;;;;5115843;28;20425;-53
2023/12/15 07:13:24;;;;;;;6.55;4.82;;;;;;;;;;5115222;28;20084;-57
2023/12/15 07:15:52;;;;;;;7.70;5.80;;;;;;;;;;5115135;28;20047;-56
2023/12/15 07:18:18;;;;;;;7.18;5.78;;;;;;;;;;5115570;28;20147;-52
2023/12/15 07:20:44;;;;;;;6.88;5.45;;;;;;;;;;5114690;28;20461;-56
2023/12/15 07:23:10;;;;;;;7.28;5.82;;;;;;;;;;5114925;28;20019;-53
2023/12/15 07:25:37;;;;;;;9.48;5.72;;;;;;;;;;5115478;28;20118;-56
2023/12/15 07:28:04;;;;;;;7.80;6.10;;;;;;;;;;5115439;28;20476;-52
2023/12/15 07:30:30;;;;;;;8.80;5.88;;;;;;;;;;5115373;28;20031;-56
2023/12/15 07:32:55;;;;;;;8.32;5.97;;;;;;;;;;5115437;28;20164;-55
2023/12/15 07:35:21;;;;;;;6.68;5.57;;;;;;;;;;5115052;28;20022;-55
2023/12/15 07:37:47;;;;;;;7.18;5.18;;;;;;;;;;5115095;28;20062;-55
2023/12/15 07:40:13;;;;;;;6.95;5.30;;;;;;;;;;5114718;28;20108;-55
2023/12/15 07:42:39;;;;;;;10.73;6.97;;;;;;;;;;5114732;28;20077;-56
2023/12/15 07:45:06;;;;;;;6.60;5.63;;;;;;;;;;5115213;28;20441;-56
2023/12/15 07:47:31;;;;;;;9.18;6.28;;;;;;;;;;5114594;28;20031;-56
2023/12/15 07:49:57;;;;;;;11.55;6.20;;;;;;;;;;5114902;28;20073;-56
2023/12/15 07:52:25;;;;;;;7.05;5.30;;;;;;;;;;5115108;28;20409;-55
2023/12/15 07:54:51;;;;;;;11.52;6.15;;;;;;;;;;5114895;28;20080;-53
2023/12/15 07:57:17;;;;;;;10.52;5.63;;;;;;;;;;5114635;28;20397;-56
2023/12/15 07:59:42;;;;;;;6.90;5.35;;;;;;;;;;5114341;28;20042;-55
2023/12/15 08:02:09;;;;;;;9.98;6.53;;;;;;;;;;5114121;28;20038;-51
2023/12/15 08:04:35;;;;;;;7.10;5.55;;;;;;;;;;5114187;28;20069;-56
2023/12/15 08:07:00;;;;;;;7.20;6.28;;;;;;;;;;5113963;28;20402;-55
2023/12/15 08:09:26;;;;;;;9.85;6.57;;;;;;;;;;5115111;28;20074;-54
2023/12/15 08:11:52;;;;;;;8.90;6.63;;;;;;;;;;5114515;28;20055;-56
2023/12/15 08:14:18;;;;;;;6.80;5.75;;;;;;;;;;5114522;28;20027;-53
2023/12/15 08:16:44;;;;;;;10.55;5.82;;;;;;;;;;5114204;28;20024;-52
2023/12/15 08:19:10;;;;;;;7.00;6.30;;;;;;;;;;5114723;28;20024;-53
2023/12/15 08:21:36;;;;;;;12.10;7.50;;;;;;;;;;5113995;28;20020;-56
2023/12/15 08:24:02;;;;;;;9.18;6.78;;;;;;;;;;5114408;28;20024;-55
2023/12/15 08:26:28;;;;;;;11.13;7.47;;;;;;;;;;5114580;28;20032;-55
2023/12/15 08:28:54;;;;;;;11.07;7.95;;;;;;;;;;5114404;28;20077;-54
2023/12/15 08:31:24;;;;;;;8.07;5.80;;;;;;;;;;5113981;28;20028;-56
2023/12/15 08:33:50;;;;;;;9.40;6.70;;;;;;;;;;5113758;28;20461;-56
2023/12/15 08:36:16;;;;;;;6.78;6.07;;;;;;;;;;5114052;28;20019;-55
2023/12/15 08:38:42;;;;;;;10.85;7.90;;;;;;;;;;5114651;28;20039;-54
2023/12/15 08:41:08;;;;;;;10.57;7.03;;;;;;;;;;5113987;28;20377;-55
2023/12/15 08:43:35;;;;;;;9.77;7.32;;;;;;;;;;5114488;28;20395;-56
2023/12/15 08:46:00;;;;;;;9.02;7.28;;;;;;;;;;5113890;28;20028;-55
2023/12/15 08:48:26;;;;;;;9.75;7.53;;;;;;;;;;5114486;28;20161;-54
2023/12/15 08:50:53;;;;;;;12.45;7.78;;;;;;;;;;5113563;28;20020;-53
2023/12/15 08:53:19;;;;;;;11.90;7.85;;;;;;;;;;5114362;28;20031;-53
2023/12/15 08:55:45;;;;;;;8.75;6.85;;;;;;;;;;5113789;28;20465;-56
2023/12/15 08:58:11;;;;;;;10.50;7.65;;;;;;;;;;5114179;28;20477;-53
2023/12/15 09:00:37;;;;;;;9.75;7.82;;;;;;;;;;5114134;28;20111;-55
2023/12/15 09:03:03;;;;;;;9.85;8.02;;;;;;;;;;5113822;28;20023;-53
2023/12/15 09:05:31;;;;;;;9.43;8.02;;;;;;;;;;5113710;28;20032;-53
2023/12/15 09:07:57;;;;;;;14.25;8.63;;;;;;;;;;5114151;28;20043;-53
2023/12/15 09:10:24;;;;;;;11.40;8.30;;;;;;;;;;5114035;28;20034;-54
2023/12/15 09:12:50;;;;;;;13.00;9.80;;;;;;;;;;5114250;28;20028;-54
2023/12/15 09:15:16;;;;;;;10.93;8.38;;;;;;;;;;5114534;28;20080;-52
2023/12/15 09:17:42;;;;;;;10.35;8.02;;;;;;;;;;5114898;28;20031;-54
2023/12/15 09:20:10;;;;;;;13.25;9.25;;;;;;;;;;5117722;28;20032;-56
2023/12/15 09:22:35;;;;;;;11.18;9.70;;;;;;;;;;5117421;28;20038;-56
2023/12/15 09:25:01;;;;;;;10.93;8.70;;;;;;;;;;5117338;28;20023;-56
2023/12/15 09:27:27;;;;;;;12.73;9.38;;;;;;;;;;5117869;28;20116;-53
2023/12/15 09:29:53;;;;;;;12.65;8.73;;;;;;;;;;5117378;28;20476;-53
2023/12/15 09:32:21;;;;;;;10.80;8.02;;;;;;;;;;5117154;28;20461;-54
2023/12/15 09:34:46;;;;;;;12.32;8.15;;;;;;;;;;5117175;28;20047;-54
2023/12/15 09:37:13;;;;;;;13.00;9.30;;;;;;;;;;5116784;28;20027;-56
2023/12/15 09:39:39;;;;;;;10.70;8.60;;;;;;;;;;5117204;28;20042;-55
2023/12/15 09:42:05;;;;;;;11.45;9.38;;;;;;;;;;5116646;28;20020;-56
2023/12/15 09:44:31;;;;;;;8.70;7.72;;;;;;;;;;5117106;28;20035;-57
2023/12/15 09:46:58;;;;;;;10.27;8.63;;;;;;;;;;5117818;28;20104;-53
2023/12/15 09:49:25;;;;;;;11.77;9.18;;;;;;;;;;5116978;28;20027;-54
2023/12/15 09:51:52;;;;;;;14.15;9.02;;;;;;;;;;5116887;28;20453;-56
2023/12/15 09:54:19;;;;;;;11.23;7.50;;;;;;;;;;5116845;28;20110;-54
2023/12/15 09:56:46;;;;;;;10.13;8.63;;;;;;;;;;5117016;28;20055;-57
2023/12/15 09:59:12;;;;;;;10.48;8.90;;;;;;;;;;5116812;28;20063;-54
2023/12/15 10:01:38;;;;;;;9.27;8.23;;;;;;;;;;5116776;28;20380;-53
2023/12/15 10:04:05;;;;;;;11.25;8.90;;;;;;;;;;5116752;28;20027;-54
2023/12/15 10:06:37;;;;;;;17.45;8.18;;;;;;;;;;5117132;28;20024;-52
2023/12/15 10:09:12;;;;;;;13.10;8.93;;;;;;;;;;5117151;28;20030;-54
2023/12/15 10:11:38;;;;;;;13.68;7.93;;;;;;;;;;5116981;28;20031;-50
2023/12/15 10:14:07;;;;;;;13.60;7.93;;;;;;;;;;5116970;28;20408;-52
2023/12/15 10:16:33;;;;;;;10.55;9.23;;;;;;;;;;5116931;28;20414;-57
2023/12/15 10:19:00;;;;;;;10.35;8.73;;;;;;;;;;5116901;28;20031;-53
2023/12/15 10:21:26;;;;;;;11.48;9.50;;;;;;;;;;5117134;28;20031;-57
2023/12/15 10:23:52;;;;;;;10.77;8.38;;;;;;;;;;5115981;28;20358;-55
2023/12/15 10:26:18;;;;;;;10.38;8.57;;;;;;;;;;5116685;28;20035;-51
2023/12/15 10:28:44;;;;;;;11.35;8.32;;;;;;;;;;5116258;28;20044;-52
2023/12/15 10:31:11;;;;;;;8.93;7.63;;;;;;;;;;5116043;28;20090;-55
2023/12/15 10:33:37;;;;;;;11.15;7.97;;;;;;;;;;5116480;28;20031;-50
2023/12/15 10:36:06;;;;;;;10.80;8.13;;;;;;;;;;5116005;28;20023;-54
2023/12/15 10:38:33;;;;;;;10.77;8.60;;;;;;;;;;5116077;28;20024;-55
2023/12/15 10:40:59;;;;;;;7.65;6.72;;;;;;;;;;5116037;28;20031;-53
2023/12/15 10:43:26;;;;;;;10.48;7.07;;;;;;;;;;5116266;28;20031;-53
2023/12/15 10:45:52;;;;;;;8.32;7.40;;;;;;;;;;5116654;28;20034;-52
2023/12/15 10:48:18;;;;;;;7.35;6.30;;;;;;;;;;5116106;28;20051;-52
2023/12/15 10:50:45;;;;;;;10.50;7.60;;;;;;;;;;5116300;28;20463;-55
2023/12/15 10:53:13;;;;;;;9.40;7.32;;;;;;;;;;5116549;28;20058;-56
2023/12/15 10:55:42;;;;;;;8.77;6.65;;;;;;;;;;5115520;28;20052;-55
2023/12/15 10:58:08;;;;;;;7.32;6.35;;;;;;;;;;5115755;28;20084;-57
2023/12/15 11:00:36;;;;;;;7.35;6.65;;;;;;;;;;5115287;28;20019;-54
2023/12/15 11:03:03;;;;;;;7.78;6.63;;;;;;;;;;5115563;28;20035;-54
2023/12/15 11:05:32;;;;;;;8.70;6.82;;;;;;;;;;5116348;28;20024;-57
2023/12/15 11:07:58;;;;;;;7.85;6.30;;;;;;;;;;5115843;28;20047;-56
2023/12/15 11:10:24;;;;;;;8.50;5.85;;;;;;;;;;5115923;28;20366;-55
2023/12/15 11:12:52;;;;;;;9.20;5.95;;;;;;;;;;5115978;28;20027;-56
2023/12/15 11:15:18;;;;;;;9.07;6.68;;;;;;;;;;5115475;28;20079;-51
2023/12/15 11:17:47;;;;;;;9.23;6.28;;;;;;;;;;5115441;28;20078;-55
2023/12/15 11:20:19;;;;;;;7.10;6.40;;;;;;;;;;5115299;28;20030;-53
2023/12/15 11:22:59;;;;;;;7.00;6.05;;;;;;;;;;5115372;28;20028;-51
2023/12/15 11:25:32;;;;;;;8.75;6.78;;;;;;;;;;5115744;28;20585;-53
2023/12/15 11:28:02;;;;;;;6.32;5.28;;;;;;;;;;5115341;28;20042;-53
2023/12/15 11:30:32;;;;;;;7.10;6.15;;;;;;;;;;5115032;28;20039;-56
2023/12/15 11:32:58;;;;;;;8.80;5.68;;;;;;;;;;5115232;28;20061;-52
2023/12/15 11:35:33;;;;;;;9.07;5.85;;;;;;;;;;5114921;28;20019;-52
2023/12/15 11:37:59;;;;;;;7.75;6.25;;;;;;;;;;5114876;28;20034;-56
2023/12/15 11:40:29;;;;;;;7.15;6.13;;;;;;;;;;5114928;28;20019;-51
2023/12/15 11:42:56;;;;;;;6.88;5.65;;;;;;;;;;5115582;28;20027;-57
2023/12/15 11:45:23;;;;;;;12.02;6.40;;;;;;;;;;5115150;28;20582;-57
2023/12/15 11:47:49;;;;;;;7.45;4.88;;;;;;;;;;5114915;28;20031;-57
2023/12/15 11:50:15;;;;;;;9.30;5.28;;;;;;;;;;5114629;28;20076;-54
2023/12/15 11:52:41;;;;;;;6.97;5.53;;;;;;;;;;5115394;28;20059;-53
2023/12/15 11:55:08;;;;;;;5.60;4.93;;;;;;;;;;5114459;28;20020;-54
2023/12/15 11:57:36;;;;;;;6.15;4.80;;;;;;;;;;5114153;28;20052;-54
2023/12/15 12:00:03;;;;;;;6.78;4.50;;;;;;;;;;5114822;28;20031;-55
2023/12/15 12:02:29;;;;;;;8.68;5.50;;;;;;;;;;5114399;28;20037;-57
2023/12/15 12:04:55;;;;;;;6.75;4.40;;;;;;;;;;5114373;28;20410;-56
2023/12/15 12:07:21;;;;;;;6.97;5.10;;;;;;;;;;5114788;28;20078;-57
2023/12/15 12:09:47;;;;;;;9.00;4.95;;;;;;;;;;5114324;28;20116;-54
2023/12/15 12:12:14;;;;;;;5.40;4.53;;;;;;;;;;5114252;28;20051;-55
2023/12/15 12:14:42;;;;;;;7.35;5.07;;;;;;;;;;5114002;28;20027;-54
2023/12/15 12:17:09;;;;;;;7.70;4.88;;;;;;;;;;5114905;28;20468;-55
2023/12/15 12:19:39;;;;;;;6.13;4.38;;;;;;;;;;5114318;28;20032;-53
2023/12/15 12:22:09;;;;;;;7.25;4.82;;;;;;;;;;5114228;28;20024;-51
2023/12/15 12:24:35;;;;;;;6.63;4.68;;;;;;;;;;5113952;28;20030;-52
2023/12/15 12:27:01;;;;;;;4.95;3.65;;;;;;;;;;5114866;28;20035;-53
2023/12/15 12:29:31;;;;;;;4.97;4.07;;;;;;;;;;5114485;28;20020;-52
2023/12/15 12:31:57;;;;;;;5.50;4.00;;;;;;;;;;5113899;28;20077;-52
2023/12/15 12:34:23;;;;;;;9.88;3.55;;;;;;;;;;5114287;28;20027;-52
2023/12/15 12:36:49;;;;;;;4.70;3.72;;;;;;;;;;5114107;28;20402;-55
2023/12/15 12:39:14;;;;;;;4.88;3.78;;;;;;;;;;5114428;28;20054;-56
2023/12/15 12:41:40;;;;;;;5.55;3.63;;;;;;;;;;5114295;28;20023;-54
2023/12/15 12:44:07;;;;;;;6.07;3.63;;;;;;;;;;5114030;28;20020;-57
2023/12/15 12:46:33;;;;;;;5.80;4.22;;;;;;;;;;5114795;28;20103;-55
2023/12/15 12:48:59;;;;;;;6.30;4.32;;;;;;;;;;5114455;28;20039;-57
2023/12/15 12:51:25;;;;;;;5.45;4.25;;;;;;;;;;5114117;28;20020;-57
2023/12/15 12:53:51;;;;;;;6.45;3.25;;;;;;;;;;5117201;28;20031;-54
2023/12/15 12:56:20;;;;;;;5.57;3.67;;;;;;;;;;5118021;28;20055;-55
2023/12/15 12:58:46;;;;;;;5.70;3.92;;;;;;;;;;5118501;28;20059;-57
2023/12/15 13:01:12;;;;;;;7.55;3.63;;;;;;;;;;5117954;28;20374;-57
2023/12/15 13:03:38;;;;;;;8.88;3.65;;;;;;;;;;5117552;28;20019;-57
2023/12/15 13:06:05;;;;;;;5.28;3.08;;;;;;;;;;5117804;28;20023;-53
2023/12/15 13:08:31;;;;;;;3.70;3.17;;;;;;;;;;5117993;28;20373;-55
2023/12/15 13:10:57;;;;;;;5.05;3.08;;;;;;;;;;5117797;28;20027;-57
2023/12/15 13:13:23;;;;;;;3.78;2.70;;;;;;;;;;5117933;28;20521;-56
2023/12/15 13:15:49;;;;;;;5.07;2.80;;;;;;;;;;5117893;28;20050;-57
2023/12/15 13:18:15;;;;;;;6.43;3.42;;;;;;;;;;5118215;28;20024;-57
2023/12/15 13:20:41;;;;;;;4.32;3.08;;;;;;;;;;5117464;28;20420;-54
2023/12/15 13:23:10;;;;;;;7.32;3.10;;;;;;;;;;5117576;28;20024;-55
2023/12/15 13:25:36;;;;;;;3.55;2.53;;;;;;;;;;5117796;28;20023;-55
2023/12/15 13:28:04;;;;;;;3.25;2.40;;;;;;;;;;5117391;28;20445;-54
2023/12/15 13:30:31;;;;;;;3.55;2.75;;;;;;;;;;5117285;28;20031;-52
2023/12/15 13:32:57;;;;;;;5.05;3.35;;;;;;;;;;5117322;28;20434;-54
2023/12/15 13:35:23;;;;;;;4.80;3.42;;;;;;;;;;5118078;28;20055;-53
2023/12/15 13:37:49;;;;;;;3.88;2.85;;;;;;;;;;5117817;28;20054;-52
2023/12/15 13:40:17;;;;;;;4.30;2.97;;;;;;;;;;5117396;28;20035;-56
2023/12/15 13:42:43;;;;;;;4.78;3.40;;;;;;;;;;5116846;28;20027;-55
2023/12/15 13:45:10;;;;;;;4.82;3.63;;;;;;;;;;5117576;28;20024;-52
2023/12/15 13:47:36;;;;;;;3.60;3.13;;;;;;;;;;5117106;28;20027;-54
2023/12/15 13:50:02;;;;;;;5.18;3.35;;;;;;;;;;5117005;28;20035;-54
2023/12/15 13:52:28;;;;;;;4.40;2.97;;;;;;;;;;5116657;28;20513;-52
2023/12/15 13:54:54;;;;;;;3.88;2.58;;;;;;;;;;5116621;28;20157;-52
2023/12/15 13:57:20;;;;;;;4.70;2.97;;;;;;;;;;5117694;28;20048;-56
2023/12/15 13:59:46;;;;;;;4.53;3.28;;;;;;;;;;5117105;28;20145;-54
2023/12/15 14:02:12;;;;;;;4.65;1.92;;;;;;;;;;5117310;28;20073;-54
2023/12/15 14:04:38;;;;;;;4.47;2.75;;;;;;;;;;5116887;28;20032;-57
2023/12/15 14:07:04;;;;;;;3.08;1.95;;;;;;;;;;5117244;28;20110;-54
2023/12/15 14:09:30;;;;;;;2.45;1.42;;;;;;;;;;5116648;28;20024;-53
2023/12/15 14:11:56;;;;;;;2.55;1.58;;;;;;;;;;5116513;28;20031;-52
2023/12/15 14:14:22;;;;;;;1.75;1.20;;;;;;;;;;5116775;28;20024;-52
2023/12/15 14:16:48;;;;;;;4.30;1.83;;;;;;;;;;5116070;28;20037;-54
2023/12/15 14:19:14;;;;;;;3.45;1.75;;;;;;;;;;5117299;28;20028;-51
2023/12/15 14:21:40;;;;;;;4.32;1.48;;;;;;;;;;5116329;28;20028;-54
2023/12/15 14:24:06;;;;;;;2.55;1.35;;;;;;;;;;5116683;28;20027;-54
2023/12/15 14:26:32;;;;;;;2.60;1.40;;;;;;;;;;5116238;28;20355;-54
2023/12/15 14:28:59;;;;;;;4.80;1.70;;;;;;;;;;5117122;28;20031;-52
2023/12/15 14:31:25;;;;;;;7.25;1.45;;;;;;;;;;5116127;28;20023;-54
2023/12/15 14:33:51;;;;;;;5.22;1.08;;;;;;;;;;5116779;28;20033;-53